• Join FlightAware (Why Join?)
  • Login
  • US Flag 
08:29AM EST


 

Airport Tracker/Info


-or-


 

Live Flight TrackerFlight Track Log ✈ GJS6206 ✈ 09-Apr-2013 ✈ KDTW - KSTL

Flight Track Log - Related Links

Times and Time Zones

All times are in EDT time to prevent confusion due to time zone crossing. See the GJS6206 flight status page for this flight to view local times or setup timezone preferences in your user account.

Time Position Orientation Groundspeed Altitude Reporting Facility
EDT Latitude Longitude Course Direction KTS MPH feet Rate Location/Type
08:06PM 42.2292 -83.3369 355° North 147 169 1,200  Level Cleveland Center
08:06PM 42.2625 -83.3411 355° North 201 231 2,200 1,800 Climbing Cleveland Center
08:07PM 42.3353 -83.3417 360° North 268 308 4,500 2,400 Climbing Cleveland Center
08:09PM 42.3861 -83.4028 318° Northwest 228 262 7,800 2,220 Climbing Cleveland Center
08:10PM 42.3642 -83.5283 257° West 266 306 10,500 1,680 Climbing Cleveland Center
08:11PM 42.3097 -83.6156 230° Southwest 278 320 12,100 1,500 Climbing Cleveland Center
08:12PM 42.2189 -83.6617 201° Southwest 311 358 13,500 1,620 Climbing Cleveland Center
08:13PM 42.1161 -83.6847 189° South 340 391 15,400 1,740 Climbing Cleveland Center
08:14PM 42.0111 -83.7106 190° South 369 425 17,000 1,740 Climbing Cleveland Center
08:15PM 41.8872 -83.7436 191° South 402 463 18,900 1,680 Climbing Cleveland Center
08:16PM 41.7739 -83.7686 189° South 415 478 20,400 1,260 Climbing Cleveland Center
08:17PM 41.6644 -83.8103 196° South 415 478 21,500 1,020 Climbing Cleveland Center
08:18PM 41.5642 -83.8858 209° Southwest 407 468 22,500 1,020 Climbing Cleveland Center
08:19PM 41.4639 -83.9667 211° Southwest 417 480 23,600 1,020 Climbing Cleveland Center
08:20PM 41.3592 -84.0469 210° Southwest 430 495 24,600 1,020 Climbing Cleveland Center
08:22PM 41.2311 -84.2036 223° Southwest 424 488 26,400 1,080 Climbing Chicago Center
08:23PM 41.1953 -84.3478 252° West 414 476 27,500 1,020 Climbing Chicago Center
08:24PM 41.1586 -84.4894 251° West 409 471 28,500 840 Climbing Chicago Center
08:25PM 41.1228 -84.6328 252° West 408 470 29,300 720 Climbing Chicago Center
08:26PM 41.0858 -84.7764 251° West 410 472 30,100 780 Climbing Chicago Center
08:27PM 41.0489 -84.9214 251° West 412 474 31,000 900 Climbing Chicago Center
08:28PM 41.0028 -85.0942 251° West 412 474 32,000 840 Climbing Chicago Center
08:29PM 40.9722 -85.2397 255° West 412 474 32,800 780 Climbing Chicago Center
08:30PM 40.9539 -85.3914 261° West 413 475 33,700 780 Climbing Chicago Center
08:31PM 40.9353 -85.5389 261° West 408 470 34,500 660 Climbing Chicago Center
08:32PM 40.9181 -85.6861 261° West 404 465 35,100 480 Climbing Chicago Center
08:33PM 40.8800 -85.8264 250° West 405 466 35,600 420 Climbing Chicago Center
08:34PM 40.8372 -85.9661 248° West 409 471 36,000 180 Climbing Chicago Center
08:35PM 40.7964 -86.1069 249° West 410 472 36,000  Level Chicago Center
08:36PM 40.7444 -86.2792 248° West 418 481 36,000  Level Chicago Center
08:37PM 40.7022 -86.4231 249° West 422 486 36,000  Level Chicago Center
08:38PM 40.6581 -86.5633 247° West 418 481 36,000  Level Chicago Center
08:39PM 40.6150 -86.7047 248° West 417 480 36,000  Level Chicago Center
08:40PM 40.5683 -86.8608 249° West 413 475 36,000 -300 Level Chicago Center
08:41PM 40.5239 -87.0017 247° West 417 480 35,400 -720 Descending Chicago Center
08:42PM 40.4897 -87.1472 253° West 420 483 34,600 -780 Descending Chicago Center
08:43PM 40.4792 -87.3011 265° West 421 484 33,800 -840 Descending Chicago Center
08:44PM 40.4708 -87.4536 266° West 420 483 33,000 -960 Descending Chicago Center
08:45PM 40.4600 -87.6411 266° West 429 494 31,900 -1,020 Descending Chicago Center
08:46PM 40.4497 -87.8011 265° West 438 504 31,000 -480 Descending Chicago Center
08:47PM 40.4025 -87.9442 247° West 433 498 31,000  Level Chicago Center
08:48PM 40.3211 -88.0611 228° Southwest 436 502 31,000 -480 Level Chicago Center
08:50PM 40.2381 -88.1781 227° Southwest 440 506 30,100 -1,200 Descending Chicago Center
08:51PM 40.1439 -88.2850 221° Southwest 428 493 28,600 -1,080 Descending Chicago Center
08:52PM 40.0425 -88.3717 213° Southwest 430 495 28,000 -300 Descending Chicago Center
08:53PM 39.9417 -88.4564 213° Southwest 429 494 28,000  Level Chicago Center
08:54PM 39.8403 -88.5419 213° Southwest 432 497 28,000 -540 Level Chicago Center
08:55PM 39.7169 -88.6450 213° Southwest 438 504 26,900 -1,140 Descending Kansas City Center
08:56PM 39.6194 -88.7269 213° Southwest 424 488 25,600 -1,440 Descending Kansas City Center
08:57PM 39.5231 -88.8058 212° Southwest 413 475 24,000 -1,680 Descending Kansas City Center
08:58PM 39.4258 -88.8858 212° Southwest 412 474 22,100 -1,740 Descending Kansas City Center
08:59PM 39.3222 -88.9744 213° Southwest 407 468 20,500 -1,380 Descending Kansas City Center
09:00PM 39.2331 -89.0469 212° Southwest 388 447 19,400 -1,080 Descending Kansas City Center
09:01PM 39.1442 -89.1203 213° Southwest 356 410 18,300 -1,200 Descending Kansas City Center
09:02PM 39.0794 -89.1981 223° Southwest 328 377 17,000 -1,260 Descending Kansas City Center
09:02PM 39.0692 -89.2022 197° South 315 362 16,400 -1,200 Descending FAA TRACON SMA TRACON (SMA)
09:03PM 39.0603 -89.2447 255° West 320 368 16,000 -1,080 Descending FAA TRACON SMA TRACON (SMA)
09:03PM 39.0531 -89.2789 255° West 323 372 15,700 -1,080 Descending FAA TRACON SMA TRACON (SMA)
09:03PM 39.0461 -89.3133 255° West 323 372 15,300 -1,200 Descending FAA TRACON SMA TRACON (SMA)
09:04PM 39.0375 -89.3558 255° West 320 368 14,900 -1,080 Descending FAA TRACON SMA TRACON (SMA)
09:04PM 39.0292 -89.3883 252° West 315 362 14,600 -1,080 Descending FAA TRACON SMA TRACON (SMA)
09:04PM 39.0208 -89.4208 252° West 312 359 14,200 -1,200 Descending FAA TRACON SMA TRACON (SMA)
09:05PM 39.0111 -89.4614 253° West 308 354 13,800 -1,080 Descending FAA TRACON SMA TRACON (SMA)
09:05PM 39.0036 -89.4933 253° West 306 352 13,500 -1,080 Descending FAA TRACON SMA TRACON (SMA)
09:05PM 38.9969 -89.5258 255° West 306 352 13,100 -1,200 Descending FAA TRACON SMA TRACON (SMA)
09:06PM 38.9850 -89.5647 248° West 305 351 12,700 -1,080 Descending FAA TRACON SMA TRACON (SMA)
09:06PM 38.9742 -89.5958 246° West 307 353 12,400 -1,080 Descending FAA TRACON SMA TRACON (SMA)
09:06PM 38.9644 -89.6272 248° West 308 354 12,000 -1,080 Descending FAA TRACON SMA TRACON (SMA)
09:07PM 38.9517 -89.6661 247° West 309 356 11,700 -960 Descending FAA TRACON SMA TRACON (SMA)
09:07PM 38.9419 -89.6981 249° West 309 356 11,400 -780 Descending FAA TRACON SMA TRACON (SMA)
09:07PM 38.9322 -89.7292 248° West 308 354 11,200 -780 Descending FAA TRACON SMA TRACON (SMA)
09:08PM 38.9194 -89.7678 247° West 306 352 10,900 -660 Descending FAA TRACON SMA TRACON (SMA)
09:08PM 38.9092 -89.7989 247° West 307 353 10,800 -480 Descending FAA TRACON SMA TRACON (SMA)
09:08PM 38.8992 -89.8300 248° West 307 353 10,600 -480 Descending FAA TRACON SMA TRACON (SMA)
09:09PM 38.8875 -89.8689 249° West 305 351 10,500 -360 Descending FAA TRACON SMA TRACON (SMA)
09:09PM 38.8769 -89.8994 246° West 305 351 10,400 -480 Descending FAA TRACON SMA TRACON (SMA)
09:09PM 38.8672 -89.9300 248° West 303 349 10,200 -480 Descending FAA TRACON SMA TRACON (SMA)
09:10PM 38.8561 -89.9664 249° West 289 333 10,100 -480 Descending FAA TRACON SMA TRACON (SMA)
09:10PM 38.8469 -89.9942 247° West 276 318 9,900 -780 Descending FAA TRACON SMA TRACON (SMA)
09:10PM 38.8386 -90.0208 248° West 267 307 9,600 -900 Descending FAA TRACON SMA TRACON (SMA)
09:11PM 38.8281 -90.0539 248° West 261 300 9,300 -960 Descending FAA TRACON SMA TRACON (SMA)
09:11PM 38.8192 -90.0800 246° West 260 299 9,000 -900 Descending FAA TRACON SMA TRACON (SMA)
09:11PM 38.8106 -90.1069 248° West 263 303 8,700 -900 Descending FAA TRACON SMA TRACON (SMA)
09:12PM 38.7997 -90.1397 247° West 261 300 8,400 -960 Descending FAA TRACON SMA TRACON (SMA)
09:12PM 38.7989 -90.1669 268° West 256 295 8,100 -900 Descending FAA TRACON SMA TRACON (SMA)
09:12PM 38.8067 -90.1908 293° West 244 281 7,800 -900 Descending FAA TRACON SMA TRACON (SMA)
09:13PM 38.8192 -90.2178 301° West 231 266 7,500 -960 Descending FAA TRACON SMA TRACON (SMA)
09:13PM 38.8292 -90.2397 300° West 229 264 7,200 -900 Descending FAA TRACON SMA TRACON (SMA)
09:13PM 38.8389 -90.2619 299° West 232 267 6,900 -1,500 Descending FAA TRACON SMA TRACON (SMA)
09:14PM 38.8511 -90.2894 300° West 230 265 6,200 -2,040 Descending FAA TRACON SMA TRACON (SMA)
09:14PM 38.8606 -90.3108 300° West 225 259 5,600 -2,100 Descending FAA TRACON SMA TRACON (SMA)
09:14PM 38.8728 -90.3378 300° West 228 262 4,800 -2,280 Descending FAA TRACON SMA TRACON (SMA)
09:15PM 38.8828 -90.3603 300° West 232 267 4,100 -1,860 Descending FAA TRACON SMA TRACON (SMA)
09:15PM 38.8928 -90.3822 300° West 233 268 3,600 -1,620 Descending FAA TRACON SMA TRACON (SMA)
09:15PM 38.8978 -90.4114 282° West 230 265 3,000 -840 Descending FAA TRACON SMA TRACON (SMA)
09:16PM 38.8894 -90.4306 241° Southwest 218 251 3,000  Level FAA TRACON SMA TRACON (SMA)
09:16PM 38.8717 -90.4461 214° Southwest 201 231 3,000 -360 Level FAA TRACON SMA TRACON (SMA)
09:16PM 38.8608 -90.4544 211° Southwest 199 229 2,800 -660 Descending FAA TRACON SMA TRACON (SMA)
09:17PM 38.8417 -90.4606 194° South 190 219 2,600 -480 Descending FAA TRACON SMA TRACON (SMA)
09:17PM 38.8261 -90.4592 176° South 182 209 2,500 -480 Descending FAA TRACON SMA TRACON (SMA)
09:17PM 38.8083 -90.4519 162° South 176 203 2,300 -600 Descending FAA TRACON SMA TRACON (SMA)
09:18PM 38.7972 -90.4392 138° Southeast 178 205 2,100 -600 Descending FAA TRACON SMA TRACON (SMA)
09:18PM 38.7900 -90.4244 122° Southeast 168 193 1,900 -780 Descending FAA TRACON SMA TRACON (SMA)
09:18PM 38.7806 -90.4061 123° Southeast 157 181 1,600 -900 Descending FAA TRACON SMA TRACON (SMA)
09:19PM 38.7744 -90.3931 121° Southeast 146 168 1,300 -780 Descending FAA TRACON SMA TRACON (SMA)
09:19PM 38.7681 -90.3806 123° Southeast 137 158 1,100 -660 Descending FAA TRACON SMA TRACON (SMA)
09:19PM 38.7600 -90.3647 123° Southeast 135 155 900 -600 Descending FAA TRACON SMA TRACON (SMA)
09:20PM 38.7539 -90.3558 131° Southeast 130 150 700 -240 Descending FAA TRACON SMA TRACON (SMA)
09:20PM 38.7539 -90.3558 247° West 130 150 700  Level FAA TRACON SMA TRACON (SMA)